createdAt,value
2023-03-11T00:00:28.625Z,82.13
2023-03-11T00:01:31.657Z,82.42
2023-03-11T00:02:34.474Z,82.33
2023-03-11T00:03:37.420Z,82.53
2023-03-11T00:04:40.255Z,82.33
2023-03-11T00:05:44.937Z,81.68
2023-03-11T00:06:48.020Z,81.44
2023-03-11T00:07:51.140Z,81.84
2023-03-11T00:08:54.243Z,81.89
2023-03-11T00:09:57.442Z,81.07
2023-03-11T00:11:01.749Z,81.92
2023-03-11T00:12:05.483Z,81.47
2023-03-11T00:13:11.237Z,81.45
2023-03-11T00:14:14.097Z,81.09
2023-03-11T00:15:16.967Z,80.15
2023-03-11T00:16:19.844Z,80.60
2023-03-11T00:17:22.824Z,80.30
2023-03-11T00:18:28.324Z,79.94
2023-03-11T00:19:31.361Z,79.13
2023-03-11T00:20:37.533Z,78.71
2023-03-11T00:21:40.597Z,79.06
2023-03-11T00:22:43.594Z,79.91
2023-03-11T00:23:47.248Z,78.69
2023-03-11T00:24:50.156Z,78.47
2023-03-11T00:25:53.499Z,78.77
2023-03-11T00:26:56.215Z,78.73
2023-03-11T00:28:00.116Z,79.72
2023-03-11T00:29:03.214Z,79.49
2023-03-11T00:30:07.015Z,78.69
2023-03-11T00:31:13.511Z,79.53
2023-03-11T00:32:16.929Z,78.83
2023-03-11T00:33:19.897Z,77.95
2023-03-11T00:34:22.799Z,78.12
2023-03-11T00:35:29.038Z,77.34
2023-03-11T00:36:36.517Z,78.25
2023-03-11T00:37:39.433Z,77.71
2023-03-11T00:38:42.438Z,77.75
2023-03-11T00:39:45.636Z,76.92
2023-03-11T00:40:48.936Z,76.05
2023-03-11T00:41:52.122Z,76.92
2023-03-11T00:42:55.341Z,77.51
2023-03-11T00:43:58.188Z,77.26
2023-03-11T00:45:01.294Z,76.98
2023-03-11T00:46:05.135Z,77.00
2023-03-11T00:47:11.178Z,76.84
2023-03-11T00:48:15.273Z,76.13
2023-03-11T00:49:18.303Z,77.31
2023-03-11T00:50:24.509Z,76.93
2023-03-11T00:51:28.370Z,76.48
2023-03-11T00:52:31.216Z,75.31
2023-03-11T00:53:34.181Z,75.74
2023-03-11T00:54:37.080Z,76.74
2023-03-11T00:55:40.275Z,77.29
2023-03-11T00:56:43.506Z,77.28
2023-03-11T00:57:47.151Z,77.01
2023-03-11T00:58:49.940Z,76.05
2023-03-11T00:59:53.604Z,76.73
2023-03-11T01:00:56.529Z,76.88
2023-03-11T01:01:59.670Z,75.87
2023-03-11T01:03:03.363Z,76.46
2023-03-11T01:04:06.559Z,76.01
2023-03-11T01:05:10.274Z,75.75
2023-03-11T01:06:14.087Z,75.83
2023-03-11T01:07:16.993Z,75.38
2023-03-11T01:08:20.007Z,73.93
2023-03-11T01:09:24.095Z,74.24
2023-03-11T01:10:27.945Z,73.96
2023-03-11T01:11:30.988Z,74.54
2023-03-11T01:12:33.814Z,74.35
2023-03-11T01:13:37.012Z,74.46
2023-03-11T01:14:39.918Z,75.03
2023-03-11T01:15:42.710Z,74.36
2023-03-11T01:16:46.613Z,74.83
2023-03-11T01:17:49.463Z,75.27
2023-03-11T01:18:52.214Z,75.08
2023-03-11T01:19:55.402Z,75.48
2023-03-11T01:20:58.214Z,75.51
2023-03-11T01:22:01.603Z,73.93
2023-03-11T01:23:05.308Z,74.64
2023-03-11T01:24:08.165Z,74.24
2023-03-11T01:25:14.263Z,75.15
2023-03-11T01:26:17.286Z,74.66
2023-03-11T01:27:20.105Z,73.62
2023-03-11T01:28:23.048Z,74.34
2023-03-11T01:29:25.932Z,73.98
2023-03-11T01:30:30.223Z,73.86
2023-03-11T01:31:33.459Z,72.90
2023-03-11T01:32:36.402Z,73.91
2023-03-11T01:33:40.054Z,73.72
2023-03-11T01:34:42.872Z,73.69
2023-03-11T01:35:46.823Z,73.13
2023-03-11T01:36:49.609Z,73.29
2023-03-11T01:37:53.389Z,73.32
2023-03-11T01:38:56.387Z,72.97
2023-03-11T01:39:59.915Z,73.01
2023-03-11T01:41:02.968Z,73.67
2023-03-11T01:42:06.094Z,73.77
2023-03-11T01:43:40.179Z,73.60
2023-03-11T01:44:43.292Z,73.40
2023-03-11T01:45:52.098Z,74.03
2023-03-11T01:47:02.382Z,73.43
2023-03-11T01:48:05.289Z,73.94
2023-03-11T01:49:12.673Z,73.65
2023-03-11T01:50:15.502Z,74.19
2023-03-11T01:51:38.619Z,74.04
2023-03-11T01:52:44.421Z,72.80
2023-03-11T01:53:47.459Z,73.37
2023-03-11T01:54:51.853Z,73.42
2023-03-11T01:55:55.094Z,73.18
2023-03-11T01:56:59.182Z,73.35
2023-03-11T01:58:09.253Z,73.16
2023-03-11T01:59:16.408Z,72.41
2023-03-11T02:00:19.842Z,73.06
2023-03-11T02:01:24.283Z,72.67
2023-03-11T02:02:40.930Z,72.80
2023-03-11T02:03:43.847Z,73.42
2023-03-11T02:04:47.564Z,73.99
2023-03-11T02:05:52.977Z,73.45
2023-03-11T02:06:59.016Z,72.81
2023-03-11T02:08:02.276Z,72.34
2023-03-11T02:09:05.136Z,72.63
2023-03-11T02:10:08.898Z,71.99
2023-03-11T02:11:27.710Z,72.10
2023-03-11T02:12:35.000Z,72.64
2023-03-11T02:13:40.250Z,72.19
2023-03-11T02:14:49.601Z,72.11
2023-03-11T02:15:52.933Z,71.95
2023-03-11T02:16:57.779Z,71.98
2023-03-11T02:18:05.452Z,70.86
2023-03-11T02:19:41.204Z,71.92
2023-03-11T02:20:49.681Z,71.54
2023-03-11T02:21:53.181Z,72.09
2023-03-11T02:22:57.569Z,72.45
2023-03-11T02:24:05.630Z,72.02
2023-03-11T02:25:30.168Z,72.04
2023-03-11T02:26:58.534Z,71.97
2023-03-11T02:28:03.837Z,72.30
2023-03-11T02:29:10.426Z,71.95
2023-03-11T02:30:14.462Z,71.64
2023-03-11T02:31:17.587Z,70.01
2023-03-11T02:32:22.700Z,69.88
2023-03-11T02:33:31.601Z,69.98
2023-03-11T02:34:36.530Z,70.14
2023-03-11T02:35:39.348Z,69.14
2023-03-11T02:36:43.237Z,69.56
2023-03-11T02:37:48.844Z,68.86
2023-03-11T02:38:51.882Z,68.85
2023-03-11T02:39:55.789Z,68.44
2023-03-11T02:41:00.721Z,69.18
2023-03-11T02:42:17.689Z,68.73
2023-03-11T02:43:26.507Z,69.40
2023-03-11T02:44:29.918Z,68.45
2023-03-11T02:45:33.622Z,68.00
2023-03-11T02:46:39.274Z,67.75
2023-03-11T02:47:42.782Z,67.52
2023-03-11T02:48:47.327Z,66.34
2023-03-11T02:49:50.240Z,66.51
2023-03-11T02:50:53.834Z,67.47
2023-03-11T02:51:56.804Z,65.31
2023-03-11T02:52:59.684Z,66.37
2023-03-11T02:54:05.928Z,66.04
2023-03-11T02:55:12.125Z,66.68
2023-03-11T02:56:15.548Z,66.34
2023-03-11T02:57:18.450Z,66.53
2023-03-11T02:58:21.689Z,65.86
2023-03-11T02:59:24.441Z,66.69
2023-03-11T03:00:27.597Z,65.66
2023-03-11T03:01:30.871Z,64.74
2023-03-11T03:02:33.747Z,64.92
2023-03-11T03:03:37.070Z,65.85
2023-03-11T03:04:40.166Z,65.50
2023-03-11T03:05:42.992Z,65.09
2023-03-11T03:06:46.100Z,65.14
2023-03-11T03:07:50.045Z,64.17
2023-03-11T03:08:53.037Z,64.63
2023-03-11T03:09:55.893Z,64.46
2023-03-11T03:11:00.132Z,64.20
2023-03-11T03:12:04.507Z,64.99
2023-03-11T03:13:07.401Z,64.84
2023-03-11T03:14:10.248Z,65.01
2023-03-11T03:15:13.792Z,64.57
2023-03-11T03:16:16.754Z,65.06
2023-03-11T03:17:19.830Z,65.71
2023-03-11T03:18:23.379Z,64.92
2023-03-11T03:19:26.506Z,65.08
2023-03-11T03:20:29.410Z,64.03
2023-03-11T03:21:32.613Z,64.39
2023-03-11T03:22:35.493Z,63.73
2023-03-11T03:23:38.356Z,63.77
2023-03-11T03:24:41.322Z,62.74
2023-03-11T03:25:45.629Z,62.24
2023-03-11T03:26:48.402Z,62.97
2023-03-11T03:27:51.423Z,61.57
2023-03-11T03:28:54.582Z,61.73
2023-03-11T03:29:57.582Z,61.18
2023-03-11T03:31:08.327Z,61.72
2023-03-11T03:32:11.312Z,61.43
2023-03-11T03:33:14.173Z,59.17
2023-03-11T03:34:17.094Z,58.70
2023-03-11T03:35:19.817Z,58.42
2023-03-11T03:36:22.653Z,57.65
2023-03-11T03:37:27.467Z,57.46
2023-03-11T03:38:30.492Z,57.31
2023-03-11T03:39:34.121Z,56.92
2023-03-11T03:40:37.095Z,58.11
2023-03-11T03:41:39.946Z,58.46
2023-03-11T03:42:42.848Z,58.55
2023-03-11T03:43:45.854Z,57.96
2023-03-11T03:44:49.059Z,57.31
2023-03-11T03:46:04.460Z,57.36
2023-03-11T03:47:07.720Z,57.46
2023-03-11T03:48:10.608Z,57.44
2023-03-11T03:49:13.665Z,57.85
2023-03-11T03:50:16.615Z,57.63
2023-03-11T03:51:19.359Z,57.23
2023-03-11T03:52:22.171Z,57.89
2023-03-11T03:53:24.990Z,57.88
2023-03-11T03:54:27.970Z,57.93
2023-03-11T03:55:30.805Z,57.91
2023-03-11T03:56:33.901Z,58.34
2023-03-11T03:57:37.046Z,57.78
2023-03-11T03:58:40.324Z,57.85
2023-03-11T03:59:43.343Z,57.84
2023-03-11T04:00:46.282Z,57.76
2023-03-11T04:01:49.636Z,56.73
2023-03-11T04:02:52.561Z,57.12
2023-03-11T04:03:55.320Z,58.02
2023-03-11T04:04:58.110Z,57.69
2023-03-11T04:06:21.282Z,57.67
2023-03-11T04:07:24.206Z,58.21
2023-03-11T04:08:27.113Z,57.30
2023-03-11T04:09:30.010Z,56.97
2023-03-11T04:10:32.755Z,56.70
2023-03-11T04:11:35.708Z,57.66
2023-03-11T04:12:38.731Z,57.11
2023-03-11T04:13:41.736Z,57.09
2023-03-11T04:14:45.269Z,56.89
2023-03-11T04:15:48.099Z,56.85
2023-03-11T04:16:51.234Z,56.60
2023-03-11T04:17:54.229Z,57.56
2023-03-11T04:18:57.343Z,57.70
2023-03-11T04:20:00.102Z,57.60
2023-03-11T04:21:07.302Z,57.67
2023-03-11T04:22:10.076Z,57.92
2023-03-11T04:23:13.245Z,57.81
2023-03-11T04:24:16.094Z,57.84
2023-03-11T04:25:19.052Z,57.71
2023-03-11T04:26:22.026Z,57.76
2023-03-11T04:27:25.009Z,56.98
2023-03-11T04:28:28.116Z,57.67
2023-03-11T04:29:30.975Z,58.12
2023-03-11T04:30:34.113Z,56.73
2023-03-11T04:31:37.102Z,55.07
2023-03-11T04:32:39.982Z,54.84
2023-03-11T04:33:43.152Z,55.02
2023-03-11T04:34:46.014Z,55.22
2023-03-11T04:35:48.851Z,56.37
2023-03-11T04:36:53.976Z,54.96
2023-03-11T04:37:56.952Z,54.06
2023-03-11T04:38:59.954Z,53.90
2023-03-11T04:40:03.864Z,53.90
2023-03-11T04:41:07.167Z,52.91
2023-03-11T04:42:10.156Z,51.48
2023-03-11T04:43:13.157Z,51.12
2023-03-11T04:44:16.082Z,50.68
2023-03-11T04:45:19.042Z,48.86
2023-03-11T04:46:22.405Z,48.20
2023-03-11T04:47:25.550Z,47.96
2023-03-11T04:48:28.735Z,48.05
2023-03-11T04:49:31.617Z,48.08
2023-03-11T04:50:34.571Z,48.79
2023-03-11T04:51:37.778Z,48.68
2023-03-11T04:52:40.745Z,49.39
2023-03-11T04:53:43.942Z,48.98
2023-03-11T04:54:46.796Z,48.48
2023-03-11T04:55:50.704Z,48.39
2023-03-11T04:56:54.158Z,49.12
2023-03-11T04:57:57.058Z,48.78
2023-03-11T04:59:00.251Z,49.41
2023-03-11T05:00:10.422Z,49.15
2023-03-11T05:01:13.306Z,49.46
2023-03-11T05:02:16.193Z,49.17
2023-03-11T05:03:19.739Z,50.13
2023-03-11T05:04:22.793Z,49.86
2023-03-11T05:05:25.594Z,51.00
2023-03-11T05:06:28.441Z,51.25
2023-03-11T05:07:31.628Z,51.62
2023-03-11T05:08:35.004Z,52.45
2023-03-11T05:09:37.912Z,52.23
2023-03-11T05:10:42.958Z,52.13
2023-03-11T05:11:45.783Z,51.65
2023-03-11T05:12:52.490Z,52.18
2023-03-11T05:13:55.365Z,52.38
2023-03-11T05:14:58.163Z,52.69
2023-03-11T05:16:01.136Z,52.63
2023-03-11T05:17:04.226Z,52.96
2023-03-11T05:18:07.146Z,52.29
2023-03-11T05:19:28.419Z,52.94
2023-03-11T05:20:32.565Z,53.25
2023-03-11T05:21:35.626Z,53.74
2023-03-11T05:22:38.854Z,54.22
2023-03-11T05:23:41.748Z,53.86
2023-03-11T05:24:44.910Z,54.42
2023-03-11T05:25:47.674Z,55.01
2023-03-11T05:26:50.699Z,54.40
2023-03-11T05:27:53.569Z,54.59
2023-03-11T05:28:56.560Z,54.55
2023-03-11T05:29:59.592Z,54.35
2023-03-11T05:31:02.604Z,54.65
2023-03-11T05:32:05.751Z,54.67
2023-03-11T05:33:08.651Z,55.24
2023-03-11T05:34:11.548Z,55.76
2023-03-11T05:35:14.687Z,55.80
2023-03-11T05:36:17.767Z,55.61
2023-03-11T05:37:20.674Z,54.98
2023-03-11T05:38:23.753Z,55.75
2023-03-11T05:39:26.556Z,55.89
2023-03-11T05:40:29.620Z,55.43
2023-03-11T05:41:32.621Z,55.70
2023-03-11T05:42:35.473Z,55.58
2023-03-11T05:43:38.409Z,55.59
2023-03-11T05:44:42.205Z,55.33
2023-03-11T05:45:45.269Z,55.86
2023-03-11T05:46:48.110Z,54.88
2023-03-11T05:47:53.077Z,55.67
2023-03-11T05:48:56.160Z,56.02
2023-03-11T05:49:59.187Z,56.06
2023-03-11T05:51:07.911Z,54.83
2023-03-11T05:52:11.020Z,55.32
2023-03-11T05:53:14.223Z,54.55
2023-03-11T05:54:17.868Z,54.76
2023-03-11T05:55:20.831Z,55.43
2023-03-11T05:56:23.827Z,53.88
2023-03-11T05:57:27.136Z,54.48
2023-03-11T05:58:31.082Z,54.67
2023-03-11T05:59:35.649Z,54.28
2023-03-11T06:00:38.695Z,54.85
2023-03-11T06:01:43.284Z,54.73
2023-03-11T06:02:46.377Z,54.43
2023-03-11T06:03:49.226Z,55.11
2023-03-11T06:04:52.302Z,54.60
2023-03-11T06:05:55.912Z,54.79
2023-03-11T06:06:58.881Z,55.34
2023-03-11T06:08:01.707Z,55.11
2023-03-11T06:09:04.607Z,55.30
2023-03-11T06:10:08.064Z,55.28
2023-03-11T06:11:11.604Z,54.73
2023-03-11T06:12:14.484Z,55.11
2023-03-11T06:13:17.282Z,55.80
2023-03-11T06:14:20.120Z,55.76
2023-03-11T06:15:23.026Z,55.48
2023-03-11T06:16:26.371Z,55.79
2023-03-11T06:17:30.487Z,55.91
2023-03-11T06:18:33.704Z,56.13
2023-03-11T06:19:36.923Z,55.21
2023-03-11T06:20:39.936Z,54.94
2023-03-11T06:21:42.813Z,55.65
2023-03-11T06:22:48.997Z,55.59
2023-03-11T06:23:52.031Z,56.30
2023-03-11T06:24:55.103Z,56.28
2023-03-11T06:26:03.174Z,56.05
2023-03-11T06:27:06.217Z,55.84
2023-03-11T06:28:09.489Z,56.00
2023-03-11T06:29:14.714Z,55.94
2023-03-11T06:30:18.705Z,55.28
2023-03-11T06:31:25.693Z,55.08
2023-03-11T06:32:29.966Z,54.84
2023-03-11T06:33:33.045Z,55.21
2023-03-11T06:34:35.991Z,55.20
2023-03-11T06:35:38.854Z,54.55
2023-03-11T06:36:41.713Z,54.01
2023-03-11T06:37:44.733Z,54.37
2023-03-11T06:38:50.199Z,54.38
2023-03-11T06:39:54.007Z,53.84
2023-03-11T06:41:01.160Z,53.58
2023-03-11T06:42:04.096Z,55.25
2023-03-11T06:43:06.979Z,55.35
2023-03-11T06:44:11.557Z,54.93
2023-03-11T06:45:14.464Z,53.72
2023-03-11T06:46:21.219Z,53.66
2023-03-11T06:47:24.206Z,53.64
2023-03-11T06:48:28.158Z,52.20
2023-03-11T06:49:31.143Z,52.67
2023-03-11T06:50:34.607Z,52.52
2023-03-11T06:51:37.584Z,52.16
2023-03-11T06:52:40.496Z,52.59
2023-03-11T06:53:44.164Z,53.26
2023-03-11T06:54:47.391Z,52.46
2023-03-11T06:56:08.073Z,52.26
2023-03-11T06:57:11.269Z,52.17
2023-03-11T06:58:14.034Z,52.85
2023-03-11T06:59:17.095Z,52.22
2023-03-11T07:00:20.238Z,52.10
2023-03-11T07:01:25.740Z,51.99
2023-03-11T07:02:28.880Z,52.36
2023-03-11T07:03:31.781Z,51.05
2023-03-11T07:04:34.714Z,51.63
2023-03-11T07:05:37.630Z,52.05
2023-03-11T07:06:42.012Z,50.91
2023-03-11T07:07:44.946Z,50.05
2023-03-11T07:08:49.628Z,50.77
2023-03-11T07:09:55.927Z,50.31
2023-03-11T07:11:13.073Z,51.05
2023-03-11T07:12:16.129Z,50.88
2023-03-11T07:13:19.400Z,49.75
2023-03-11T07:14:23.010Z,49.62
2023-03-11T07:15:26.018Z,49.89
2023-03-11T07:16:30.996Z,49.06
2023-03-11T07:17:34.201Z,49.63
2023-03-11T07:18:37.946Z,48.42
2023-03-11T07:19:41.307Z,48.42
2023-03-11T07:20:44.472Z,47.88
2023-03-11T07:21:47.535Z,49.47
2023-03-11T07:22:50.464Z,49.67
2023-03-11T07:23:59.167Z,49.65
2023-03-11T07:25:02.067Z,49.36
2023-03-11T07:26:05.434Z,48.90
2023-03-11T07:27:09.009Z,49.46
2023-03-11T07:28:14.209Z,48.70
2023-03-11T07:29:18.553Z,49.61
2023-03-11T07:30:21.914Z,48.98
2023-03-11T07:31:27.366Z,48.46
2023-03-11T07:32:30.459Z,47.96
2023-03-11T07:33:34.367Z,48.01
2023-03-11T07:34:37.404Z,47.76
2023-03-11T07:35:40.499Z,46.98
2023-03-11T07:36:43.653Z,47.38
2023-03-11T07:37:46.842Z,46.52
2023-03-11T07:39:00.150Z,45.58
2023-03-11T07:40:03.746Z,45.89
2023-03-11T07:41:07.386Z,45.99
2023-03-11T07:42:10.522Z,46.06
2023-03-11T07:43:13.470Z,46.56
2023-03-11T07:44:17.456Z,46.81
2023-03-11T07:45:20.316Z,46.09
2023-03-11T07:46:25.065Z,46.21
2023-03-11T07:47:28.200Z,46.29
2023-03-11T07:48:31.502Z,47.54
2023-03-11T07:49:34.556Z,47.17
2023-03-11T07:50:37.340Z,47.67
2023-03-11T07:51:42.728Z,47.88
2023-03-11T07:52:46.049Z,48.19
2023-03-11T07:53:50.415Z,47.84
2023-03-11T07:54:53.260Z,47.80
2023-03-11T07:55:57.942Z,48.13
2023-03-11T07:57:01.524Z,48.34
2023-03-11T07:58:04.496Z,47.44
2023-03-11T07:59:07.450Z,48.03
2023-03-11T08:00:12.860Z,47.94
2023-03-11T08:01:22.124Z,46.68
2023-03-11T08:02:25.086Z,47.01
2023-03-11T08:03:28.068Z,46.35
2023-03-11T08:04:31.151Z,46.69
2023-03-11T08:05:34.704Z,47.78
2023-03-11T08:06:38.478Z,47.67
2023-03-11T08:07:41.349Z,47.98
2023-03-11T08:08:44.614Z,47.00
2023-03-11T08:09:47.473Z,47.72
2023-03-11T08:10:50.414Z,47.11
2023-03-11T08:11:53.453Z,47.58
2023-03-11T08:12:56.371Z,47.57
2023-03-11T08:13:59.314Z,47.26
2023-03-11T08:15:02.283Z,47.12
2023-03-11T08:16:08.014Z,46.72
2023-03-11T08:17:11.209Z,46.20
2023-03-11T08:18:14.174Z,46.96
2023-03-11T08:19:17.293Z,46.07
2023-03-11T08:20:20.877Z,46.03
2023-03-11T08:21:26.895Z,47.11
2023-03-11T08:22:29.930Z,46.82
2023-03-11T08:23:32.907Z,48.13
2023-03-11T08:24:36.082Z,47.21
2023-03-11T08:25:40.350Z,47.28
2023-03-11T08:26:43.329Z,46.54
2023-03-11T08:27:46.253Z,47.31
2023-03-11T08:28:50.342Z,46.07
2023-03-11T08:29:53.152Z,46.10
2023-03-11T08:30:56.353Z,46.75
2023-03-11T08:31:59.468Z,45.93
2023-03-11T08:33:02.597Z,45.36
2023-03-11T08:34:08.952Z,45.85
2023-03-11T08:35:12.130Z,45.03
2023-03-11T08:36:15.314Z,44.27
2023-03-11T08:37:18.408Z,44.43
2023-03-11T08:38:21.644Z,44.96
2023-03-11T08:39:24.774Z,44.58
2023-03-11T08:40:27.777Z,43.64
2023-03-11T08:41:31.012Z,44.14
2023-03-11T08:42:35.710Z,44.19
2023-03-11T08:43:40.422Z,43.38
2023-03-11T08:44:43.489Z,42.66
2023-03-11T08:45:46.464Z,41.99
2023-03-11T08:46:49.931Z,43.71
2023-03-11T08:47:52.951Z,44.28
2023-03-11T08:48:59.773Z,44.48
2023-03-11T08:50:05.808Z,43.45
2023-03-11T08:51:13.175Z,43.66
2023-03-11T08:52:16.024Z,44.87
2023-03-11T08:53:18.876Z,45.75
2023-03-11T08:54:22.301Z,46.28
2023-03-11T08:55:27.992Z,46.00
2023-03-11T08:56:31.118Z,46.68
2023-03-11T08:57:34.165Z,46.63
2023-03-11T08:58:37.203Z,46.46
2023-03-11T08:59:40.474Z,46.81
2023-03-11T09:00:43.489Z,47.18
2023-03-11T09:01:47.157Z,46.99
2023-03-11T09:02:50.190Z,47.36
2023-03-11T09:03:53.448Z,47.75
2023-03-11T09:04:56.362Z,48.02
2023-03-11T09:06:00.708Z,47.83
2023-03-11T09:07:03.872Z,48.05
2023-03-11T09:08:07.106Z,48.16
2023-03-11T09:09:14.864Z,47.87
2023-03-11T09:10:18.321Z,47.49
2023-03-11T09:11:22.856Z,46.70
2023-03-11T09:12:25.628Z,47.26
2023-03-11T09:13:29.508Z,47.23
2023-03-11T09:14:32.514Z,46.33
2023-03-11T09:15:36.707Z,47.24
2023-03-11T09:16:40.003Z,47.43
2023-03-11T09:17:43.064Z,47.54
2023-03-11T09:18:46.389Z,47.51
2023-03-11T09:19:49.717Z,47.35
2023-03-11T09:20:58.923Z,47.81
2023-03-11T09:22:03.292Z,47.39
2023-03-11T09:23:07.242Z,47.60
2023-03-11T09:24:10.453Z,47.62
2023-03-11T09:25:14.325Z,47.34
2023-03-11T09:26:17.419Z,46.96
2023-03-11T09:27:20.956Z,47.67
2023-03-11T09:28:24.432Z,47.62
2023-03-11T09:29:27.588Z,47.03
2023-03-11T09:30:31.386Z,47.86
2023-03-11T09:31:34.298Z,47.20
2023-03-11T09:32:37.364Z,47.54
2023-03-11T09:33:41.643Z,47.63
2023-03-11T09:34:44.563Z,47.41
2023-03-11T09:35:47.533Z,48.57
2023-03-11T09:36:50.813Z,48.40
2023-03-11T09:37:53.864Z,48.07
2023-03-11T09:38:56.949Z,48.16
2023-03-11T09:39:59.773Z,47.60
2023-03-11T09:41:05.271Z,47.38
2023-03-11T09:42:24.150Z,47.68
2023-03-11T09:44:00.387Z,47.85
2023-03-11T09:45:05.809Z,48.68
2023-03-11T09:46:30.632Z,48.43
2023-03-11T09:48:13.141Z,47.37
2023-03-11T09:49:57.145Z,47.94
2023-03-11T09:51:09.452Z,46.87
2023-03-11T09:52:15.553Z,46.03
2023-03-11T09:53:44.674Z,45.84
2023-03-11T09:54:51.220Z,45.71
2023-03-11T09:55:58.623Z,45.80
2023-03-11T09:57:03.906Z,45.92
2023-03-11T09:58:18.500Z,46.21
2023-03-11T09:59:31.285Z,45.76
2023-03-11T10:00:34.516Z,45.25
2023-03-11T10:01:46.062Z,44.14
2023-03-11T10:02:50.156Z,44.64
2023-03-11T10:04:01.887Z,44.51
2023-03-11T10:05:15.067Z,45.10
2023-03-11T10:06:24.736Z,45.34
2023-03-11T10:07:50.111Z,46.16
2023-03-11T10:09:13.281Z,46.50
2023-03-11T10:10:18.324Z,46.55
2023-03-11T10:11:45.074Z,46.56
2023-03-11T10:13:11.056Z,47.45
2023-03-11T10:14:37.066Z,47.94
2023-03-11T10:15:49.177Z,47.31
2023-03-11T10:17:07.825Z,47.14
2023-03-11T10:18:20.536Z,47.35
2023-03-11T10:19:34.134Z,47.35
2023-03-11T10:20:43.392Z,47.74
2023-03-11T10:22:02.185Z,48.95
2023-03-11T10:23:08.145Z,49.06
2023-03-11T10:24:14.641Z,48.59
2023-03-11T10:25:26.697Z,49.04
2023-03-11T10:26:41.885Z,48.97
2023-03-11T10:27:50.083Z,49.42
2023-03-11T10:29:30.602Z,49.39
2023-03-11T10:30:41.601Z,49.40
2023-03-11T10:31:59.893Z,49.23
2023-03-11T10:33:08.020Z,48.75
2023-03-11T10:34:22.118Z,48.73
2023-03-11T10:35:39.699Z,48.30
2023-03-11T10:36:51.824Z,48.03
2023-03-11T10:38:19.695Z,47.58
2023-03-11T10:39:23.826Z,46.77
2023-03-11T10:40:31.778Z,45.88
2023-03-11T10:41:47.222Z,46.92
2023-03-11T10:42:52.659Z,46.43
2023-03-11T10:44:07.469Z,46.05
2023-03-11T10:45:15.308Z,44.96
2023-03-11T10:46:26.016Z,45.23
2023-03-11T10:47:29.751Z,44.39
2023-03-11T10:48:33.448Z,43.75
2023-03-11T10:49:37.161Z,43.30
2023-03-11T10:50:59.121Z,43.75
2023-03-11T10:52:04.423Z,43.29
2023-03-11T10:53:11.259Z,43.23
2023-03-11T10:54:41.464Z,43.08
2023-03-11T10:55:53.305Z,42.10
2023-03-11T10:57:00.085Z,42.26
2023-03-11T10:58:15.165Z,42.13
2023-03-11T10:59:31.590Z,40.73
2023-03-11T11:00:34.934Z,41.20
2023-03-11T11:01:38.010Z,40.23
2023-03-11T11:02:52.610Z,39.73
2023-03-11T11:03:59.692Z,40.32
2023-03-11T11:05:07.828Z,39.41
2023-03-11T11:06:32.637Z,38.62
2023-03-11T11:07:42.310Z,39.52
2023-03-11T11:08:47.018Z,39.61
2023-03-11T11:10:12.669Z,39.52
2023-03-11T11:11:25.041Z,40.34
2023-03-11T11:12:27.845Z,38.87
2023-03-11T11:13:34.834Z,39.34
2023-03-11T11:14:45.462Z,40.49
2023-03-11T11:15:55.254Z,41.79
2023-03-11T11:16:58.344Z,42.58
2023-03-11T11:18:24.372Z,42.62
2023-03-11T11:19:29.802Z,42.51
2023-03-11T11:20:34.642Z,42.12
2023-03-11T11:21:40.880Z,42.29
2023-03-11T11:22:51.209Z,41.73
2023-03-11T11:24:26.658Z,41.70
2023-03-11T11:25:59.142Z,42.16
2023-03-11T11:27:12.150Z,41.92
2023-03-11T11:28:20.997Z,41.27
2023-03-11T11:29:23.883Z,41.88
2023-03-11T11:30:28.317Z,42.70
2023-03-11T11:31:31.280Z,43.75
2023-03-11T11:32:34.283Z,42.68
2023-03-11T11:33:50.084Z,42.13
2023-03-11T11:35:04.313Z,41.05
2023-03-11T11:36:16.162Z,40.25
2023-03-11T11:37:19.125Z,39.52
2023-03-11T11:38:27.217Z,39.08
2023-03-11T11:39:43.116Z,39.29
2023-03-11T11:40:46.222Z,39.92
2023-03-11T11:41:51.040Z,40.98
2023-03-11T11:42:59.988Z,40.91
2023-03-11T11:44:07.412Z,40.08
2023-03-11T11:45:26.686Z,39.18
2023-03-11T11:46:34.573Z,39.45
2023-03-11T11:47:45.431Z,40.04
2023-03-11T11:49:17.042Z,40.35
2023-03-11T11:50:51.587Z,39.73
2023-03-11T11:52:14.052Z,38.85
2023-03-11T11:53:56.056Z,38.82
2023-03-11T11:55:15.473Z,38.85
2023-03-11T11:56:18.403Z,40.62
2023-03-11T11:57:23.632Z,41.04
2023-03-11T11:58:26.611Z,41.54
2023-03-11T11:59:33.673Z,41.58
2023-03-11T12:00:42.961Z,42.53
2023-03-11T12:02:05.372Z,42.72
2023-03-11T12:03:32.709Z,41.91
2023-03-11T12:05:14.280Z,41.71
2023-03-11T12:06:25.544Z,41.09
2023-03-11T12:07:57.473Z,41.51
2023-03-11T12:09:24.684Z,41.27
2023-03-11T12:10:50.249Z,41.99
2023-03-11T12:12:28.660Z,41.94
2023-03-11T12:13:49.981Z,41.15
2023-03-11T12:15:13.452Z,39.63
2023-03-11T12:16:46.560Z,39.39
2023-03-11T12:17:53.444Z,38.51
2023-03-11T12:19:17.114Z,37.50
2023-03-11T12:20:44.042Z,36.73
2023-03-11T12:22:21.042Z,37.38
2023-03-11T12:24:08.719Z,38.41
2023-03-11T12:25:27.868Z,38.59
2023-03-11T12:26:36.412Z,38.75
2023-03-11T12:27:50.270Z,38.32
2023-03-11T12:29:16.083Z,38.86
2023-03-11T12:30:36.995Z,39.13
2023-03-11T12:31:42.044Z,38.39
2023-03-11T12:32:52.910Z,39.30
2023-03-11T12:34:03.360Z,39.24
2023-03-11T12:35:32.291Z,39.48
2023-03-11T12:36:39.444Z,39.42
2023-03-11T12:37:43.359Z,40.17
2023-03-11T12:38:48.627Z,41.08
2023-03-11T12:39:51.467Z,41.27
2023-03-11T12:41:21.197Z,41.42
2023-03-11T12:42:27.705Z,40.77
2023-03-11T12:43:36.181Z,41.18
2023-03-11T12:44:40.421Z,39.70
2023-03-11T12:45:55.897Z,40.10
2023-03-11T12:46:59.159Z,39.49
2023-03-11T12:48:34.568Z,37.93
2023-03-11T12:49:40.919Z,38.75
2023-03-11T12:50:44.930Z,39.25
2023-03-11T12:52:14.056Z,38.63
2023-03-11T12:53:18.193Z,38.59
2023-03-11T12:54:22.943Z,38.96
2023-03-11T12:55:31.716Z,38.30
2023-03-11T12:56:45.131Z,38.18
2023-03-11T12:57:48.426Z,38.15
2023-03-11T12:59:32.283Z,38.51
2023-03-11T13:01:03.331Z,38.42
2023-03-11T13:02:28.351Z,38.49
2023-03-11T13:04:28.717Z,38.30
2023-03-11T13:06:00.312Z,37.34
2023-03-11T13:07:37.123Z,37.94
2023-03-11T13:08:55.055Z,38.86
2023-03-11T13:10:13.923Z,37.62
2023-03-11T13:11:34.466Z,36.95
2023-03-11T13:12:49.532Z,37.61
2023-03-11T13:13:52.976Z,38.64
2023-03-11T13:15:20.733Z,38.23
2023-03-11T13:16:23.897Z,38.58
2023-03-11T13:17:32.674Z,37.97
2023-03-11T13:18:36.195Z,38.76
2023-03-11T13:19:49.257Z,38.32
2023-03-11T13:21:03.540Z,38.06
2023-03-11T13:22:41.086Z,37.66
2023-03-11T13:23:46.475Z,37.61
2023-03-11T13:24:51.121Z,38.40
2023-03-11T13:25:54.117Z,37.72
2023-03-11T13:27:00.217Z,38.01
2023-03-11T13:28:55.670Z,38.83
2023-03-11T13:30:04.471Z,38.30
2023-03-11T13:31:55.657Z,37.73
2023-03-11T13:33:07.576Z,37.57
2023-03-11T13:34:15.693Z,37.49
2023-03-11T13:35:48.277Z,37.66
2023-03-11T13:37:22.172Z,37.39
2023-03-11T13:38:34.649Z,36.12
2023-03-11T13:39:45.931Z,36.93
2023-03-11T13:40:50.002Z,36.66
2023-03-11T13:41:54.046Z,37.07
2023-03-11T13:43:04.230Z,36.83
2023-03-11T13:44:19.702Z,37.20
2023-03-11T13:45:37.032Z,37.23
2023-03-11T13:46:43.345Z,37.33
2023-03-11T13:47:49.877Z,38.45
2023-03-11T13:49:05.480Z,38.59
2023-03-11T13:50:30.232Z,38.58
2023-03-11T13:51:41.612Z,39.41
2023-03-11T13:52:53.899Z,39.44
2023-03-11T13:54:02.780Z,38.84
2023-03-11T13:55:22.743Z,39.30
2023-03-11T13:56:59.352Z,38.99
2023-03-11T13:58:16.000Z,38.90
2023-03-11T13:59:24.359Z,39.54
2023-03-11T14:00:34.419Z,39.93
2023-03-11T14:01:37.523Z,40.71
2023-03-11T14:02:47.777Z,40.42
2023-03-11T14:03:51.593Z,41.78
2023-03-11T14:04:58.503Z,41.40
2023-03-11T14:06:05.307Z,41.63
2023-03-11T14:07:14.635Z,42.40
2023-03-11T14:08:27.256Z,41.30
2023-03-11T14:09:30.754Z,41.95
2023-03-11T14:10:33.708Z,41.37
2023-03-11T14:11:36.844Z,41.47
2023-03-11T14:12:40.089Z,41.14
2023-03-11T14:13:51.475Z,40.23
2023-03-11T14:15:04.631Z,41.32
2023-03-11T14:16:33.919Z,40.73
2023-03-11T14:17:37.293Z,40.43
2023-03-11T14:18:46.726Z,40.12
2023-03-11T14:20:15.847Z,39.61
2023-03-11T14:21:22.941Z,39.97
2023-03-11T14:22:26.370Z,41.43
2023-03-11T14:23:34.995Z,42.29
2023-03-11T14:24:40.231Z,41.92
2023-03-11T14:25:43.505Z,42.66
2023-03-11T14:26:50.763Z,43.07